Refresh Text  Kaikki - Lähtöluettelo - Kokonaistulos - 1. kierros - 2. kierros - 
PosNum.StatusDriverClLapsDiffBest lap Lap 1Lap 2Lap 3Car
Luokka 1 , R5, R2, R3, N5, S2000, FIN-R, N 4WD, SS 4WD, Supercar, WRC 4WD, R-Lite, Classic
 1 87  Juha Mäkelä X 1 2  -  02:03.68 02:05.62 02:03.68  Mitsubishi Lancer Evo 6,5
 2 86  Jari Lamminsivu X 1 2 00.02 02:03.70 02:06.57 02:03.70  Skoda Fabia
 3 88  Jukka Tenho X 1 2 04.79 02:08.47 02:08.47 02:22.07  mitsubishi Evo 6
 4 93  Timo Mäki-Ikola X 1 2 08.66 02:12.34 02:12.63 02:12.34  Mitsubishi Lancer
 5 89  Lasse Hiihtola X 1 1 12.54 02:16.22 02:16.22  Mitsubishi Lancer
 6 90  Heikki Kylmänen X 1 2 12.83 02:16.51 02:16.51 02:21.86  Subaru Impreza
 7 91  Aku Seppälä X 1 2 14.98 02:18.66 02:18.66 02:22.03  Mitsubishi Evo 3
 8 96  Jesse Kalliokoski 1 2 20.68 02:24.36 02:24.36 kesk  Mitsubishi Evo 6
Luokka 2 , Proto, SS alle 1450cc ja Trophy enintään 1400cc
 1 100  Mikko Salo 2 2  -  02:34.33 02:36.62 02:34.33  Citroen AX Gti
Luokka 3 , Proto, SS alle 1650cc
 1 67  Aki Mansikkamäki X 3 2  -  02:09.31 02:09.81 02:09.31  Toyota Starlet
 2 70  Matti Pietikäinen X 3 2 03.87 02:13.18 02:17.88 02:13.18  Skoda coupe
 3 71  Samuel Sporre 3 2   kesk. kesk  Toyota Starlet
Luokka 4 , Proto, SS, Autocross alle 2250cc
 1 77  Petri Väyrynen 4 2  -  02:13.16 02:14.54 02:13.16  Ford Fiesta
 2 76  Jari Muilu 4 2 00.74 02:13.90 02:13.90 02:14.41  Toyota MR2
 3 75  Juha Harju 4 2 00.94 02:14.10 02:16.77 02:14.10  Toyota MR2
 4 74  Jukka Lifländer X 4 2 01.84 02:15.00 02:15.00 02:15.11  Honda Civic EK 9 Type-R
 5 72  Anssi Koivula X 4 2 09.05 02:22.21 02:23.09 02:22.21  Skoda 120 VTS
 6 101  Leevi Myllynpää 4 2 11.24 02:24.40 kesk. 02:24.40  Ford Fiesta
Luokka 5 , Proto, SS, Autocross, SRC yli 2250cc
 1 44  Mikko Koivula X 5 2  -  02:08.04 02:09.10 02:08.04  BMW M3
 2 43  Juha-Pekka Koivula X 5 2 00.23 02:08.27 02:13.98 02:08.27  BMW M3
 3 48  Aapo Poikkimäki X 5 2 01.10 02:09.14 02:10.26 02:09.14  Ford Escort Mk2
 4 51  Lauri Tarkkanen 5 2 06.09 02:14.13 kesk. 02:14.13  Bmw E30
 5 54  teppo peltoniemi 5 2 07.46 02:15.50 02:15.50 02:16.30  Ford Fiesta EkoTurboo
 6 45  Pekka Kinnunen X 5 1 07.52 02:15.56 02:15.56  BMWETTE
 7 46  Hannu Väänänen X 5 2 09.32 02:17.36 02:18.33 02:17.36  Ford Escort
 8 47  Janne Laine X 5 2 09.90 02:17.94 02:17.94 02:19.15  Toyota
Luokka 6 , V1600, R1 alle 1600cc, Micra-Cupin autot
 1 26  Sakari Koskimaa 6 2  -  02:24.34 02:27.24 02:24.34  Opel Astra G
 2 18  Johan Dahlbacka X 6 2 01.28 02:25.62 02:25.62 02:25.74  Honda Civic Vti
 3 28  Tuuli-Joanna Rusila 6 2 03.27 02:27.61 02:27.61 02:28.25  Opel Astra G
 4 25  Eetu Harju 6 2 06.34 02:30.68 02:32.72 02:30.68  Opel astra
 5 19  Asko Laukkanen X 6 2 06.46 02:30.80 02:31.45 02:30.80  VW Polo
 6 21  Juuso Mäkinen X 6 2 08.73 02:33.07 02:37.20 02:33.07  Opel Astra
 7 20  Ismo Lepistö X 6 2 09.45 02:33.79 02:33.79 02:41.26  Ford
 8 22  Sami Mäkinen 6 2 11.25 02:35.59 02:38.85 02:35.59  Peugeot 307
Luokka 7 , Naiset 2wd
 1 10  Marjo-Riitta Mansikkamäki X 7 2  -  02:13.55 02:13.66 02:13.55  Toyota Starlet
 2 11  Kaisa Sistonen X 7 2 01.54 02:15.09 02:16.62 02:15.09  BMW M3
 3 12  Emma Karhu X 7 2 06.59 02:20.14 02:25.95 02:20.14  Ford
 4 14  Sirpa Korpi X 7 2 22.23 02:35.78 02:35.78 02:46.23  Toyota Yaris
 5 16  Satu Laine 7 2 30.66 02:44.21 02:48.01 02:44.21  Toyota Starlet
 6 13  Junttila Jessika x 7 2 37.57 02:51.12 03:09.11 02:51.12  BMW 325
Luokka 8 , Naiset 4wd
 1 31  Jonna-Julia Valme X 8 2  -  02:17.02 02:21.32 02:17.02  Mitsubishi Lancer Evo IX
Luokka 9 , Seniorit 2wd alle 2250cc
 1 73  Kimmo Peippo X 9 2  -  02:11.28 02:12.08 02:11.28  Toyota MR2
 2 56  Karo Tarkkanen X 9 2 01.46 02:12.74 02:12.74 02:13.08  Datsun Finn
 3 102  Elfving Toni 9 2 01.65 02:12.93 02:15.88 02:12.93  Toyota MR2
 4 57  leif tuomela X 9 2 04.43 02:15.71 02:16.50 02:15.71  alfaromeö1750gtv
Luokka 10 , Seniorit 2wd yli 2250cc
 1 58  Jarmo Suokko X 10 2  -  02:11.53 02:12.12 02:11.53  Bmw M3 Compact
 2 60  Harri Hietala X 10 2 01.58 02:13.11 02:14.36 02:13.11  BMW M3
 3 59  Mikko Lassila X 10 2 02.17 02:13.70 02:13.70 02:14.08  BMW M3 E36
 4 61  Antti Sinisalo X 10 2 03.03 02:14.56 02:16.28 02:14.56  BMW
 5 63  Saku Salmivaara X 10 2 04.07 02:15.60 02:15.60 02:26.60  Ford
 6 65  Harri Korhonen 10 2 04.29 02:15.82 02:15.82 02:17.57  Ford escort XR3
 7 62  Kari Karhu X 10 2 05.12 02:16.65 02:17.96 02:16.65  Ford
 8 66  Esa Yli-Rasku 10 2 30.78 02:42.31 02:42.31 02:43.04  Volvo PV
Luokka 11 , Classic 2wd alle 1650cc
 1 78  Jyrki Kumpulainen X 11 2  -  02:31.07 02:31.07 02:45.82  Opel Corsa Gsi
Luokka 12 , Classic 2wd yli 1650cc
 1 80  Kimmo Herronen 12 2  -  02:35.37 02:35.37 02:35.39  Opel Kadett C GT/E
Luokka 13 , Ralliautot 2wd alle 2250cc
 1 81  Marko Sinivuori X 13 2  -  02:14.95 02:17.50 02:14.95  Tojota
 2 83  Ari Saxberg X 13 2 04.90 02:19.85 02:21.12 02:19.85  Suzuki RS
 3 82  Jyrki Korpi X 13 1 07.38 02:22.33 02:22.33  Toyota Yaris
Luokka 14 , Ralliautot 2wd yli 2250cc
 1 52  Ari Kuronen 14 2  -  02:30.11 02:30.11 02:30.40  Kadett C
Luokka 16 , HR Ralliautot, Sorarallirenkaalla, tilavuus vapaa
 1 33  Jasu Saarinen X 16 2  -  02:21.98 02:22.14 02:21.98  BMW 125i
 2 36  Tuukka Kuusisto X 16 2 02.78 02:24.76 02:27.07 02:24.76  Bmw E36
 3 39  Santeri Tarkkanen 16 2 05.82 02:27.80 02:30.25 02:27.80  Bmw 320
 4 37  Lasse Hirvijärvi X 16 2 07.40 02:29.38 02:29.48 02:29.38  Bmw 125 coupé
 5 32  Junttila Pauli x 16 2 09.90 02:31.88 02:34.77 02:31.88  BMW 325
 6 40  Petteri Mehtälä 16 2 24.91 02:46.89 02:49.86 02:46.89  Peugeot 206 gti
Luokka 17 , Nuoret V1600
 1 85  Matias Pietikäinen 17 2  -  02:34.63 02:34.63 02:35.22  Toyota Auris
Luokka 18 , Cross Kart 750cc ja 850cc
 1 1  Jari-Matti Tiilikka X 18 2  -  02:06.11 02:07.62 02:06.11  Speedcar Xtrem
 2 2  Mika Polvinen X 18 2 01.76 02:07.87 02:08.73 02:07.87  Crosskart speedcar
 3 4  Tero Heikkilä X 18 2 02.41 02:08.52 02:10.24 02:08.52  Speedcar Xtrem 750
 4 3  Mikko Pääkkönen X 18 2 04.08 02:10.19 02:11.19 02:10.19  Speedcar xtream
 5 5  Harri Pitkäranta X 18 2 05.88 02:11.99 02:16.14 02:11.99  Speedcar Xtrem
Luokka 19 , 4WD Ralliautot, sorarallirenkaalla (lisäluokka)
 1 98  Harry Nieminen 19 2  -  02:18.88 02:19.66 02:18.88  Skoda
 2 99  Aarni Mertanen 19 2 00.40 02:19.28 02:20.07 02:19.28  Skoda Fabia
Solution by Ajaksi Ajaksi.fi